Latest Weather Observations for Coconut Island

IDQ60801

Issued at 4:02 pm EST Sunday 1 May 2016 (issued every 30 minutes, with the page automatically refreshed every 10 minutes)

About weather observations | Map of weather stations | Latest weather observations for QLD | Other Formats
Station Details ID: 027054 Name: COCONUT ISLAND Lat: -10.05 Lon: 143.07 Height: 3.5 m
Data from the previous 72 hours. | See also: Recent months at Coconut Island
Date/Time
EST
Temp
°C
App
Temp
°C
Dew
Point
Rel
Hum
%
Delta-T
°C
Wind Press
QNH
hPa
Press
MSL
hPa
Rain
since 9 am
mm
Dir
 
Spd
km/h
Gust
km/h
Spd
kts
Gust
kts
01/04:00pm 31.2 - - - - SE 7 19 4 10 1008.9 1008.8 0.2
01/03:30pm 31.4 - - - - ESE 7 17 4 9 1009.1 1009.0 0.2
01/03:00pm 31.6 - - - - ESE 7 19 4 10 1009.2 1009.1 0.2
01/02:30pm 32.0 - - - - ESE 9 22 5 12 1009.3 1009.2 0.2
01/02:00pm 31.3 - - - - ESE 9 19 5 10 1009.5 1009.4 0.2
01/01:30pm 31.2 - - - - ESE 11 20 6 11 1009.9 1009.8 0.2
01/01:00pm 31.5 - - - - ESE 7 17 4 9 1010.3 1010.2 0.2
01/12:30pm 32.1 - - - - ESE 9 15 5 8 1010.7 1010.6 0.0
01/12:00pm 31.4 - - - - ESE 9 20 5 11 1011.1 1011.0 0.0
01/11:30am 31.4 - - - - ESE 11 19 6 10 1011.6 1011.5 0.0
01/11:00am 31.0 - - - - ESE 13 22 7 12 1011.9 1011.8 0.0
01/10:30am 30.3 - - - - ESE 9 19 5 10 1012.2 1012.1 0.0
01/10:00am 29.5 - - - - ESE 9 19 5 10 1012.2 1012.1 0.0
01/09:30am 28.8 - - - - ESE 11 22 6 12 1012.3 1012.2 0.0
01/09:00am 28.1 - - - - ESE 11 20 6 11 1012.3 1012.2 3.8
01/08:30am 27.7 - - - - ESE 9 19 5 10 1012.2 1012.1 3.8
01/08:00am 27.3 - - - - SE 7 17 4 9 1011.9 1011.8 3.8
01/07:30am 27.1 - - - - SE 7 17 4 9 1011.6 1011.5 3.8
01/07:00am 27.0 - - - - SE 7 15 4 8 1011.3 1011.2 3.8
01/06:30am 26.8 - - - - SSE 6 15 3 8 1010.8 1010.7 3.8
01/06:00am 26.8 - - - - SSE 6 11 3 6 1010.6 1010.5 3.8
01/05:30am 26.7 - - - - SE 4 6 2 3 1010.5 1010.4 3.8
01/05:00am 26.4 - - - - SSE 4 7 2 4 1010.4 1010.3 3.8
01/04:30am 26.5 - - - - SSE 4 7 2 4 1010.1 1010.0 3.8
01/04:00am 26.6 - - - - SE 4 7 2 4 1009.8 1009.7 3.8
01/03:30am 26.5 - - - - SE 7 15 4 8 1009.6 1009.5 3.8
01/03:00am 26.3 - - - - E 7 13 4 7 1009.7 1009.6 3.8
01/02:30am 26.3 - - - - E 9 15 5 8 1010.0 1009.9 2.6
01/02:00am 27.1 - - - - ESE 6 19 3 10 1010.2 1010.1 0.2
01/01:30am 26.9 - - - - SE 2 11 1 6 1010.4 1010.3 0.2
01/01:00am 26.9 - - - - SE 4 11 2 6 1010.7 1010.6 0.2
01/12:30am 26.8 - - - - SE 6 13 3 7 1010.8 1010.7 0.2
01/12:00am 26.8 - - - - ESE 6 11 3 6 1011.0 1010.9 0.2
 
Date/Time
EST
Temp
°C
App
Temp
°C
Dew
Point
Rel
Hum
%
Delta-T
°C
Wind Press
QNH
hPa
Press
MSL
hPa
Rain
since 9 am
mm
Dir
 
Spd
km/h
Gust
km/h
Spd
kts
Gust
kts
30/11:30pm 26.9 - - - - E 7 13 4 7 1011.3 1011.2 0.2
30/11:00pm 26.8 - - - - E 7 17 4 9 1011.3 1011.2 0.2
30/10:30pm 26.7 - - - - E 7 11 4 6 1011.4 1011.3 0.2
30/10:00pm 26.9 - - - - E 11 15 6 8 1011.5 1011.4 0.2
30/09:30pm 26.9 - - - - E 11 19 6 10 1011.4 1011.3 0.2
30/09:00pm 27.0 - - - - E 11 20 6 11 1011.3 1011.2 0.2
30/08:30pm 26.8 - - - - E 11 19 6 10 1011.0 1010.9 0.2
30/08:00pm 27.0 - - - - E 11 20 6 11 1010.5 1010.4 0.2
30/07:30pm 27.2 - - - - E 11 19 6 10 1009.8 1009.7 0.2
30/07:00pm 27.4 - - - - ESE 9 19 5 10 1009.5 1009.4 0.2
30/06:30pm 27.6 - - - - ESE 6 11 3 6 1009.3 1009.2 0.2
30/06:00pm 28.4 - - - - SE 4 9 2 5 1008.9 1008.8 0.2
30/05:30pm 29.6 - - - - SE 4 7 2 4 1008.6 1008.5 0.2
30/05:00pm 30.6 - - - - SSE 6 11 3 6 1008.3 1008.2 0.2
30/04:30pm 30.8 - - - - SSE 6 9 3 5 1007.9 1007.8 0.2
30/04:00pm 30.2 - - - - SSE 4 6 2 3 1008.0 1007.9 0.2
30/03:30pm 29.9 - - - - SSE 2 2 1 1 1008.0 1007.9 0.2
30/03:00pm 29.5 - - - - CALM 0 2 0 1 1007.9 1007.8 0.2
30/02:30pm 29.8 - - - - SSE 2 4 1 2 1008.4 1008.3 0.2
30/02:00pm 30.1 - - - - CALM 0 2 0 1 1009.2 1009.1 0.2
30/01:30pm 31.3 - - - - S 2 4 1 2 1009.8 1009.7 0.2
30/01:00pm 31.3 - - - - SSE 2 6 1 3 1010.6 1010.5 0.2
30/12:30pm 31.9 - - - - SE 4 7 2 4 1011.2 1011.1 0.2
30/12:00pm 30.7 - - - - SE 4 6 2 3 1011.6 1011.5 0.2
30/11:30am 29.8 - - - - ENE 6 9 3 5 1012.1 1012.0 0.2
30/11:00am 29.3 - - - - E 4 9 2 5 1012.5 1012.4 0.2
30/10:30am 29.3 - - - - ENE 7 11 4 6 1012.7 1012.6 0.2
30/10:00am 28.6 - - - - NE 7 9 4 5 1012.9 1012.8 0.0
30/09:30am 28.8 - - - - NE 7 9 4 5 1012.9 1012.8 0.0
30/09:00am 28.0 - - - - ENE 9 13 5 7 1013.1 1013.0 70.6
30/08:30am 26.9 - - - - ENE 7 13 4 7 1012.9 1012.8 70.6
30/08:00am 26.1 - - - - E 4 6 2 3 1012.5 1012.4 70.6
30/07:30am 25.6 - - - - ENE 7 9 4 5 1012.4 1012.3 70.6
30/07:00am 26.0 - - - - NE 9 15 5 8 1011.7 1011.6 70.6
30/06:30am 25.3 - - - - ENE 9 13 5 7 1011.7 1011.6 70.6
30/06:00am 25.6 - - - - ENE 13 20 7 11 1011.1 1011.0 70.6
30/05:30am 25.2 - - - - ENE 13 19 7 10 1010.6 1010.5 70.6
30/05:00am 24.7 - - - - E 9 17 5 9 1010.7 1010.6 70.6
30/04:30am 24.8 - - - - E 11 19 6 10 1010.4 1010.3 70.6
30/04:00am 25.1 - - - - ENE 13 19 7 10 1010.3 1010.2 70.6
30/03:30am 24.7 - - - - ENE 11 19 6 10 1010.5 1010.4 70.6
30/03:00am 24.6 - - - - ENE 9 15 5 8 1010.6 1010.5 70.2
30/02:30am 24.7 - - - - ENE 9 13 5 7 1010.5 1010.4 70.2
30/02:00am 24.7 - - - - NE 11 15 6 8 1010.6 1010.5 70.0
30/01:30am 24.7 - - - - NE 7 13 4 7 1011.2 1011.1 69.6
30/01:00am 24.5 - - - - NE 4 7 2 4 1011.6 1011.5 69.4
30/12:30am 24.5 - - - - NE 13 19 7 10 1011.8 1011.7 68.2
30/12:00am 24.3 - - - - NNE 13 19 7 10 1012.0 1011.9 67.8
 
Date/Time
EST
Temp
°C
App
Temp
°C
Dew
Point
Rel
Hum
%
Delta-T
°C
Wind Press
QNH
hPa
Press
MSL
hPa
Rain
since 9 am
mm
Dir
 
Spd
km/h
Gust
km/h
Spd
kts
Gust
kts
29/11:30pm 24.3 - - - - NNE 19 24 10 13 1011.8 1011.7 63.8
29/11:00pm 24.8 - - - - NE 15 20 8 11 1012.2 1012.1 55.2
29/10:30pm 24.9 - - - - N 15 24 8 13 1011.8 1011.7 42.0
29/10:00pm 25.3 - - - - ENE 11 26 6 14 1012.2 1012.1 27.4
29/09:30pm 25.4 - - - - NE 11 15 6 8 1012.0 1011.9 22.6
29/09:00pm 25.5 - - - - NNE 9 13 5 7 1011.9 1011.8 22.4
29/08:30pm 25.4 - - - - N 15 19 8 10 1011.6 1011.5 18.6
29/08:00pm 25.6 - - - - NNE 9 17 5 9 1011.3 1011.2 9.4
29/07:30pm 25.3 - - - - NNW 17 20 9 11 1010.5 1010.4 7.8
29/07:00pm 25.6 - - - - NNW 17 24 9 13 1010.4 1010.3 0.6
29/06:30pm 26.1 - - - - N 11 24 6 13 1010.2 1010.1 0.0
29/06:00pm 28.9 - - - - SE 6 15 3 8 1009.6 1009.5 0.0
29/05:30pm 29.2 - - - - ESE 7 15 4 8 1009.1 1009.0 0.0
29/05:00pm 30.1 - - - - SE 6 13 3 7 1008.9 1008.8 0.0
29/04:30pm 30.8 - - - - SE 7 13 4 7 1008.6 1008.5 0.0
29/04:00pm 30.8 - - - - ESE 9 19 5 10 1008.5 1008.4 0.0
29/03:30pm 31.0 - - - - SE 9 17 5 9 1008.4 1008.3 0.0
29/03:00pm 31.7 - - - - ESE 9 19 5 10 1008.4 1008.3 0.0
29/02:30pm 32.3 - - - - ESE 9 22 5 12 1008.3 1008.2 0.0
29/02:00pm 31.0 - - - - ESE 9 19 5 10 1008.6 1008.5 0.0
29/01:30pm 31.6 - - - - SE 7 17 4 9 1008.7 1008.6 0.0
29/01:00pm 31.6 - - - - ESE 11 20 6 11 1009.1 1009.0 0.0
29/12:30pm 32.3 - - - - SE 9 17 5 9 1009.7 1009.6 0.0
29/12:00pm 31.3 - - - - ESE 11 19 6 10 1010.2 1010.1 0.0
29/11:30am 32.3 - - - - ESE 9 17 5 9 1010.6 1010.5 0.0
29/11:00am 32.1 - - - - ESE 9 20 5 11 1011.2 1011.1 0.0
29/10:30am 32.5 - - - - ESE 7 15 4 8 1011.6 1011.5 0.0
29/10:00am 31.1 - - - - SE 7 17 4 9 1011.6 1011.5 0.0
29/09:30am 29.3 - - - - ESE 9 17 5 9 1011.6 1011.5 0.0
29/09:00am 30.1 - - - - ESE 11 20 6 11 1011.2 1011.1 0.0
29/08:30am 29.9 - - - - ESE 11 19 6 10 1010.9 1010.8 0.0
29/08:00am 29.2 - - - - ESE 11 22 6 12 1010.8 1010.7 0.0
29/07:30am 28.3 - - - - ESE 9 19 5 10 1010.5 1010.4 0.0
29/07:00am 27.8 - - - - ESE 11 22 6 12 1010.0 1009.9 0.0
29/06:30am 27.5 - - - - SE 9 19 5 10 1009.3 1009.2 0.0
29/06:00am 27.8 - - - - ESE 11 19 6 10 1009.0 1008.9 0.0
29/05:30am 27.6 - - - - SE 7 15 4 8 1008.8 1008.7 0.0
29/05:00am 27.6 - - - - SE 6 13 3 7 1008.6 1008.5 0.0
29/04:30am 27.8 - - - - SE 6 15 3 8 1008.5 1008.4 0.0
29/04:00am 27.8 - - - - SE 7 17 4 9 1008.2 1008.1 0.0
29/03:30am 27.7 - - - - SE 7 17 4 9 1008.4 1008.3 0.0
29/03:00am 27.7 - - - - SE 7 15 4 8 1008.5 1008.4 0.0
29/02:30am 27.7 - - - - SE 9 17 5 9 1008.6 1008.5 0.0
29/02:00am 27.6 - - - - ESE 9 17 5 9 1009.0 1008.9 0.0
29/01:30am 27.8 - - - - ESE 7 19 4 10 1009.1 1009.0 0.0
29/01:00am 27.8 - - - - ESE 9 19 5 10 1009.6 1009.5 0.0
29/12:30am 27.8 - - - - ESE 9 17 5 9 1010.0 1009.9 0.0
29/12:00am 27.7 - - - - ESE 6 15 3 8 1010.2 1010.1 0.0
 
Date/Time
EST
Temp
°C
App
Temp
°C
Dew
Point
Rel
Hum
%
Delta-T
°C
Wind Press
QNH
hPa
Press
MSL
hPa
Rain
since 9 am
mm
Dir
 
Spd
km/h
Gust
km/h
Spd
kts
Gust
kts
28/11:30pm 27.7 - - - - SE 7 19 4 10 1010.3 1010.2 0.0
28/11:00pm 27.9 - - - - SE 7 17 4 9 1010.6 1010.5 0.0
28/10:30pm 27.8 - - - - ESE 7 13 4 7 1010.5 1010.4 0.0
28/10:00pm 27.8 - - - - SE 7 15 4 8 1010.6 1010.5 0.0
28/09:30pm 28.0 - - - - ESE 7 17 4 9 1010.4 1010.3 0.0
28/09:00pm 27.8 - - - - ESE 9 15 5 8 1010.1 1010.0 0.0
28/08:30pm 27.9 - - - - ESE 9 17 5 9 1009.9 1009.8 0.0
28/08:00pm 27.9 - - - - ESE 9 15 5 8 1009.5 1009.4 0.0
28/07:30pm 27.8 - - - - SE 7 15 4 8 1008.9 1008.8 0.0
28/07:00pm 27.9 - - - - SE 4 11 2 6 1008.6 1008.5 0.0
28/06:30pm 28.1 - - - - SE 6 15 3 8 1008.1 1008.0 0.0
28/06:00pm 28.5 - - - - SE 7 13 4 7 1007.7 1007.6 0.0
28/05:30pm 29.3 - - - - ESE 7 13 4 7 1007.5 1007.4 0.0
28/05:00pm 30.5 - - - - ESE 4 11 2 6 1007.5 1007.4 0.0
28/04:30pm 31.2 - - - - ESE 6 13 3 7 1007.3 1007.2 0.0

Other Formats:

Comma delimited format used in spreadsheet applications
http://www.bom.gov.au/fwo/IDQ60801/IDQ60801.94182.axf

JavaScript Object Notation format (JSON) in row-major order
http://www.bom.gov.au/fwo/IDQ60801/IDQ60801.94182.json